sensor_id;sensor_type;location;lat;lon;timestamp;P1;durP1;ratioP1;P2;durP2;ratioP2
38785;SDS011;24535;45.508;12.252;2023-02-15T00:01:29;153.05;;;115.40;;
38785;SDS011;24535;45.508;12.252;2023-02-15T00:03:55;149.75;;;110.32;;
38785;SDS011;24535;45.508;12.252;2023-02-15T00:06:21;150.35;;;111.15;;
38785;SDS011;24535;45.508;12.252;2023-02-15T00:08:46;161.50;;;115.70;;
38785;SDS011;24535;45.508;12.252;2023-02-15T00:11:13;163.25;;;119.10;;
38785;SDS011;24535;45.508;12.252;2023-02-15T00:13:40;160.55;;;119.45;;
38785;SDS011;24535;45.508;12.252;2023-02-15T00:16:11;169.43;;;120.78;;
38785;SDS011;24535;45.508;12.252;2023-02-15T00:18:40;166.35;;;121.72;;
38785;SDS011;24535;45.508;12.252;2023-02-15T00:21:07;166.25;;;120.28;;
38785;SDS011;24535;45.508;12.252;2023-02-15T00:23:34;166.88;;;120.00;;
38785;SDS011;24535;45.508;12.252;2023-02-15T00:26:10;170.80;;;123.25;;
38785;SDS011;24535;45.508;12.252;2023-02-15T00:28:36;169.05;;;120.70;;
38785;SDS011;24535;45.508;12.252;2023-02-15T00:31:05;169.35;;;123.63;;
38785;SDS011;24535;45.508;12.252;2023-02-15T00:33:32;177.27;;;124.68;;
38785;SDS011;24535;45.508;12.252;2023-02-15T00:35:58;179.43;;;128.10;;
38785;SDS011;24535;45.508;12.252;2023-02-15T00:38:24;180.52;;;132.25;;
38785;SDS011;24535;45.508;12.252;2023-02-15T00:40:54;193.32;;;135.63;;
38785;SDS011;24535;45.508;12.252;2023-02-15T00:43:21;182.32;;;137.32;;
38785;SDS011;24535;45.508;12.252;2023-02-15T00:45:46;170.27;;;124.03;;
38785;SDS011;24535;45.508;12.252;2023-02-15T00:48:12;183.23;;;134.18;;
38785;SDS011;24535;45.508;12.252;2023-02-15T00:50:37;174.90;;;130.05;;
38785;SDS011;24535;45.508;12.252;2023-02-15T00:53:03;170.07;;;127.15;;
38785;SDS011;24535;45.508;12.252;2023-02-15T00:55:28;176.88;;;127.65;;
38785;SDS011;24535;45.508;12.252;2023-02-15T00:57:54;169.95;;;126.75;;
38785;SDS011;24535;45.508;12.252;2023-02-15T01:00:19;175.80;;;132.80;;
38785;SDS011;24535;45.508;12.252;2023-02-15T01:02:45;172.32;;;125.90;;
38785;SDS011;24535;45.508;12.252;2023-02-15T01:05:11;180.43;;;135.05;;
38785;SDS011;24535;45.508;12.252;2023-02-15T01:07:37;177.32;;;132.27;;
38785;SDS011;24535;45.508;12.252;2023-02-15T01:10:03;188.07;;;136.32;;
38785;SDS011;24535;45.508;12.252;2023-02-15T01:12:30;193.18;;;140.48;;
38785;SDS011;24535;45.508;12.252;2023-02-15T01:14:55;196.05;;;141.00;;
38785;SDS011;24535;45.508;12.252;2023-02-15T01:17:21;191.35;;;138.27;;
38785;SDS011;24535;45.508;12.252;2023-02-15T01:19:46;179.25;;;129.02;;
38785;SDS011;24535;45.508;12.252;2023-02-15T01:22:11;186.30;;;132.68;;
38785;SDS011;24535;45.508;12.252;2023-02-15T01:24:37;189.43;;;136.18;;
38785;SDS011;24535;45.508;12.252;2023-02-15T01:27:02;185.63;;;136.27;;
38785;SDS011;24535;45.508;12.252;2023-02-15T01:29:28;184.00;;;136.38;;
38785;SDS011;24535;45.508;12.252;2023-02-15T01:31:53;188.50;;;137.63;;
38785;SDS011;24535;45.508;12.252;2023-02-15T01:34:19;189.75;;;137.52;;
38785;SDS011;24535;45.508;12.252;2023-02-15T01:36:44;173.75;;;131.70;;
38785;SDS011;24535;45.508;12.252;2023-02-15T01:39:10;180.88;;;132.32;;
38785;SDS011;24535;45.508;12.252;2023-02-15T01:41:35;176.30;;;130.02;;
38785;SDS011;24535;45.508;12.252;2023-02-15T01:44:01;174.75;;;130.55;;
38785;SDS011;24535;45.508;12.252;2023-02-15T01:46:33;178.70;;;134.15;;
38785;SDS011;24535;45.508;12.252;2023-02-15T01:49:03;171.15;;;128.30;;
38785;SDS011;24535;45.508;12.252;2023-02-15T01:51:34;176.65;;;131.82;;
38785;SDS011;24535;45.508;12.252;2023-02-15T01:54:10;176.68;;;130.85;;
38785;SDS011;24535;45.508;12.252;2023-02-15T01:56:43;180.98;;;132.77;;
38785;SDS011;24535;45.508;12.252;2023-02-15T01:59:09;171.38;;;128.40;;
38785;SDS011;24535;45.508;12.252;2023-02-15T02:01:40;181.48;;;132.50;;
38785;SDS011;24535;45.508;12.252;2023-02-15T02:09:22;180.65;;;122.95;;
38785;SDS011;24535;45.508;12.252;2023-02-15T02:11:47;172.75;;;125.05;;
38785;SDS011;24535;45.508;12.252;2023-02-15T02:14:13;179.93;;;130.63;;
38785;SDS011;24535;45.508;12.252;2023-02-15T02:24:32;176.95;;;130.68;;
38785;SDS011;24535;45.508;12.252;2023-02-15T02:32:53;168.23;;;125.53;;
38785;SDS011;24535;45.508;12.252;2023-02-15T02:35:30;164.10;;;120.85;;
38785;SDS011;24535;45.508;12.252;2023-02-15T02:41:30;163.13;;;124.07;;
38785;SDS011;24535;45.508;12.252;2023-02-15T02:46:47;170.38;;;126.32;;
38785;SDS011;24535;45.508;12.252;2023-02-15T02:49:27;168.48;;;127.07;;
38785;SDS011;24535;45.508;12.252;2023-02-15T02:52:02;170.50;;;126.22;;
38785;SDS011;24535;45.508;12.252;2023-02-15T02:54:30;174.20;;;123.38;;
38785;SDS011;24535;45.508;12.252;2023-02-15T02:56:59;170.73;;;124.57;;
38785;SDS011;24535;45.508;12.252;2023-02-15T02:59:37;164.02;;;120.40;;
38785;SDS011;24535;45.508;12.252;2023-02-15T03:02:11;168.38;;;124.38;;
38785;SDS011;24535;45.508;12.252;2023-02-15T03:04:42;170.55;;;124.30;;
38785;SDS011;24535;45.508;12.252;2023-02-15T03:07:14;180.40;;;129.10;;
38785;SDS011;24535;45.508;12.252;2023-02-15T03:09:48;169.48;;;126.32;;
38785;SDS011;24535;45.508;12.252;2023-02-15T03:12:18;174.52;;;128.32;;
38785;SDS011;24535;45.508;12.252;2023-02-15T03:14:48;176.55;;;130.75;;
38785;SDS011;24535;45.508;12.252;2023-02-15T03:17:20;175.63;;;131.52;;
38785;SDS011;24535;45.508;12.252;2023-02-15T03:19:51;165.10;;;123.10;;
38785;SDS011;24535;45.508;12.252;2023-02-15T03:22:21;172.75;;;125.18;;
38785;SDS011;24535;45.508;12.252;2023-02-15T03:27:23;169.48;;;123.38;;
38785;SDS011;24535;45.508;12.252;2023-02-15T03:29:55;173.05;;;126.32;;
38785;SDS011;24535;45.508;12.252;2023-02-15T03:32:23;162.32;;;124.32;;
38785;SDS011;24535;45.508;12.252;2023-02-15T03:34:53;162.50;;;121.88;;
38785;SDS011;24535;45.508;12.252;2023-02-15T03:37:22;165.00;;;120.75;;
38785;SDS011;24535;45.508;12.252;2023-02-15T03:39:59;169.65;;;123.20;;
38785;SDS011;24535;45.508;12.252;2023-02-15T03:43:00;159.45;;;117.95;;
38785;SDS011;24535;45.508;12.252;2023-02-15T03:45:41;162.93;;;120.05;;
38785;SDS011;24535;45.508;12.252;2023-02-15T03:48:20;156.25;;;115.40;;
38785;SDS011;24535;45.508;12.252;2023-02-15T03:50:51;151.73;;;116.50;;
38785;SDS011;24535;45.508;12.252;2023-02-15T03:53:39;151.65;;;115.03;;
38785;SDS011;24535;45.508;12.252;2023-02-15T03:56:07;159.57;;;114.00;;
38785;SDS011;24535;45.508;12.252;2023-02-15T03:58:32;152.77;;;116.78;;
38785;SDS011;24535;45.508;12.252;2023-02-15T04:04:20;158.27;;;117.85;;
38785;SDS011;24535;45.508;12.252;2023-02-15T04:06:47;159.60;;;115.97;;
38785;SDS011;24535;45.508;12.252;2023-02-15T04:09:13;155.77;;;113.25;;
38785;SDS011;24535;45.508;12.252;2023-02-15T04:11:58;148.90;;;111.60;;
38785;SDS011;24535;45.508;12.252;2023-02-15T04:14:23;149.75;;;114.90;;
38785;SDS011;24535;45.508;12.252;2023-02-15T04:17:08;149.05;;;113.00;;
38785;SDS011;24535;45.508;12.252;2023-02-15T04:19:34;144.85;;;113.28;;
38785;SDS011;24535;45.508;12.252;2023-02-15T04:22:18;151.35;;;112.40;;
38785;SDS011;24535;45.508;12.252;2023-02-15T04:25:03;151.07;;;111.35;;
38785;SDS011;24535;45.508;12.252;2023-02-15T04:27:34;151.02;;;113.43;;
38785;SDS011;24535;45.508;12.252;2023-02-15T04:30:01;149.55;;;108.60;;
38785;SDS011;24535;45.508;12.252;2023-02-15T04:32:26;150.20;;;110.20;;
38785;SDS011;24535;45.508;12.252;2023-02-15T04:34:52;148.57;;;107.25;;
38785;SDS011;24535;45.508;12.252;2023-02-15T04:37:18;145.80;;;110.32;;
38785;SDS011;24535;45.508;12.252;2023-02-15T04:39:44;147.80;;;111.75;;
38785;SDS011;24535;45.508;12.252;2023-02-15T04:42:09;148.05;;;108.50;;
38785;SDS011;24535;45.508;12.252;2023-02-15T04:44:35;143.68;;;109.40;;
38785;SDS011;24535;45.508;12.252;2023-02-15T04:47:00;149.02;;;111.90;;
38785;SDS011;24535;45.508;12.252;2023-02-15T04:49:26;144.65;;;108.38;;
38785;SDS011;24535;45.508;12.252;2023-02-15T04:51:51;158.32;;;109.78;;
38785;SDS011;24535;45.508;12.252;2023-02-15T04:54:17;146.70;;;108.65;;
38785;SDS011;24535;45.508;12.252;2023-02-15T04:56:42;136.63;;;104.60;;
38785;SDS011;24535;45.508;12.252;2023-02-15T04:59:11;144.07;;;105.78;;
38785;SDS011;24535;45.508;12.252;2023-02-15T05:01:37;147.02;;;108.78;;
38785;SDS011;24535;45.508;12.252;2023-02-15T05:04:03;152.70;;;109.53;;
38785;SDS011;24535;45.508;12.252;2023-02-15T05:06:28;155.93;;;112.35;;
38785;SDS011;24535;45.508;12.252;2023-02-15T05:08:54;149.48;;;110.82;;
38785;SDS011;24535;45.508;12.252;2023-02-15T05:11:20;152.57;;;110.07;;
38785;SDS011;24535;45.508;12.252;2023-02-15T05:13:45;151.20;;;111.28;;
38785;SDS011;24535;45.508;12.252;2023-02-15T05:16:11;158.57;;;110.50;;
38785;SDS011;24535;45.508;12.252;2023-02-15T05:18:37;154.27;;;110.88;;
38785;SDS011;24535;45.508;12.252;2023-02-15T05:21:02;150.50;;;108.03;;
38785;SDS011;24535;45.508;12.252;2023-02-15T05:23:28;153.05;;;110.10;;
38785;SDS011;24535;45.508;12.252;2023-02-15T05:25:53;145.85;;;108.88;;
38785;SDS011;24535;45.508;12.252;2023-02-15T05:28:38;138.90;;;102.32;;
38785;SDS011;24535;45.508;12.252;2023-02-15T05:31:05;142.68;;;105.00;;
38785;SDS011;24535;45.508;12.252;2023-02-15T05:33:34;138.07;;;103.28;;
38785;SDS011;24535;45.508;12.252;2023-02-15T05:36:00;143.27;;;106.53;;
38785;SDS011;24535;45.508;12.252;2023-02-15T05:38:27;138.07;;;102.25;;
38785;SDS011;24535;45.508;12.252;2023-02-15T05:40:53;148.82;;;107.05;;
38785;SDS011;24535;45.508;12.252;2023-02-15T05:43:19;141.07;;;104.80;;
38785;SDS011;24535;45.508;12.252;2023-02-15T05:45:46;146.07;;;109.10;;
38785;SDS011;24535;45.508;12.252;2023-02-15T05:48:12;148.88;;;107.63;;
38785;SDS011;24535;45.508;12.252;2023-02-15T05:50:38;152.98;;;110.95;;
38785;SDS011;24535;45.508;12.252;2023-02-15T05:53:03;151.85;;;109.20;;
38785;SDS011;24535;45.508;12.252;2023-02-15T05:55:29;151.88;;;111.68;;
38785;SDS011;24535;45.508;12.252;2023-02-15T05:57:54;149.38;;;109.82;;
38785;SDS011;24535;45.508;12.252;2023-02-15T06:00:20;149.15;;;110.13;;
38785;SDS011;24535;45.508;12.252;2023-02-15T06:02:45;146.18;;;107.88;;
38785;SDS011;24535;45.508;12.252;2023-02-15T06:05:11;159.50;;;117.43;;
38785;SDS011;24535;45.508;12.252;2023-02-15T06:07:36;159.48;;;118.07;;
38785;SDS011;24535;45.508;12.252;2023-02-15T06:10:02;157.18;;;115.45;;
38785;SDS011;24535;45.508;12.252;2023-02-15T06:12:28;156.95;;;116.88;;
38785;SDS011;24535;45.508;12.252;2023-02-15T06:14:54;150.68;;;114.03;;
38785;SDS011;24535;45.508;12.252;2023-02-15T06:17:19;151.18;;;109.53;;
38785;SDS011;24535;45.508;12.252;2023-02-15T06:19:46;140.60;;;105.85;;
38785;SDS011;24535;45.508;12.252;2023-02-15T06:22:12;139.00;;;102.93;;
38785;SDS011;24535;45.508;12.252;2023-02-15T06:24:39;140.27;;;104.03;;
38785;SDS011;24535;45.508;12.252;2023-02-15T06:27:07;140.35;;;99.80;;
38785;SDS011;24535;45.508;12.252;2023-02-15T06:29:32;143.18;;;104.15;;
38785;SDS011;24535;45.508;12.252;2023-02-15T06:31:58;139.32;;;101.80;;
38785;SDS011;24535;45.508;12.252;2023-02-15T06:34:23;143.32;;;104.03;;
38785;SDS011;24535;45.508;12.252;2023-02-15T06:36:49;139.75;;;104.70;;
38785;SDS011;24535;45.508;12.252;2023-02-15T06:39:14;143.68;;;104.28;;
38785;SDS011;24535;45.508;12.252;2023-02-15T06:41:40;142.15;;;103.50;;
38785;SDS011;24535;45.508;12.252;2023-02-15T06:44:05;140.65;;;105.75;;
38785;SDS011;24535;45.508;12.252;2023-02-15T06:46:31;134.27;;;100.97;;
38785;SDS011;24535;45.508;12.252;2023-02-15T06:48:56;141.27;;;103.57;;
38785;SDS011;24535;45.508;12.252;2023-02-15T06:51:22;140.48;;;102.88;;
38785;SDS011;24535;45.508;12.252;2023-02-15T06:53:47;143.65;;;103.07;;
38785;SDS011;24535;45.508;12.252;2023-02-15T06:56:13;140.30;;;101.20;;
38785;SDS011;24535;45.508;12.252;2023-02-15T06:58:39;140.48;;;103.28;;
38785;SDS011;24535;45.508;12.252;2023-02-15T07:01:05;144.95;;;101.47;;
38785;SDS011;24535;45.508;12.252;2023-02-15T07:03:31;133.30;;;101.97;;
38785;SDS011;24535;45.508;12.252;2023-02-15T07:05:58;136.05;;;98.30;;
38785;SDS011;24535;45.508;12.252;2023-02-15T07:08:25;135.82;;;99.97;;
38785;SDS011;24535;45.508;12.252;2023-02-15T07:10:51;130.35;;;98.13;;
38785;SDS011;24535;45.508;12.252;2023-02-15T07:13:18;137.57;;;98.15;;
38785;SDS011;24535;45.508;12.252;2023-02-15T07:15:44;138.57;;;98.97;;
38785;SDS011;24535;45.508;12.252;2023-02-15T07:18:11;138.38;;;98.45;;
38785;SDS011;24535;45.508;12.252;2023-02-15T07:20:36;132.73;;;97.93;;
38785;SDS011;24535;45.508;12.252;2023-02-15T07:23:03;121.65;;;96.07;;
38785;SDS011;24535;45.508;12.252;2023-02-15T07:25:30;133.10;;;98.28;;
38785;SDS011;24535;45.508;12.252;2023-02-15T07:27:56;140.80;;;99.10;;
38785;SDS011;24535;45.508;12.252;2023-02-15T07:30:23;135.85;;;96.15;;
38785;SDS011;24535;45.508;12.252;2023-02-15T07:32:48;134.23;;;99.47;;
38785;SDS011;24535;45.508;12.252;2023-02-15T07:35:33;128.93;;;94.18;;
38785;SDS011;24535;45.508;12.252;2023-02-15T07:37:58;126.57;;;97.68;;
38785;SDS011;24535;45.508;12.252;2023-02-15T07:40:24;135.93;;;97.32;;
38785;SDS011;24535;45.508;12.252;2023-02-15T07:42:51;137.13;;;98.95;;
38785;SDS011;24535;45.508;12.252;2023-02-15T07:45:18;137.75;;;97.20;;
38785;SDS011;24535;45.508;12.252;2023-02-15T07:47:44;136.50;;;101.00;;
38785;SDS011;24535;45.508;12.252;2023-02-15T07:50:09;143.95;;;100.93;;
38785;SDS011;24535;45.508;12.252;2023-02-15T07:52:34;136.27;;;102.80;;
38785;SDS011;24535;45.508;12.252;2023-02-15T07:55:00;136.80;;;98.80;;
38785;SDS011;24535;45.508;12.252;2023-02-15T07:57:26;136.20;;;100.53;;
38785;SDS011;24535;45.508;12.252;2023-02-15T07:59:51;142.07;;;103.53;;
38785;SDS011;24535;45.508;12.252;2023-02-15T08:02:17;138.70;;;100.10;;
38785;SDS011;24535;45.508;12.252;2023-02-15T08:04:42;135.35;;;99.90;;
38785;SDS011;24535;45.508;12.252;2023-02-15T08:07:08;136.55;;;97.97;;
38785;SDS011;24535;45.508;12.252;2023-02-15T08:09:33;133.35;;;98.80;;
38785;SDS011;24535;45.508;12.252;2023-02-15T08:11:59;126.38;;;93.57;;
38785;SDS011;24535;45.508;12.252;2023-02-15T08:14:24;126.15;;;88.68;;
38785;SDS011;24535;45.508;12.252;2023-02-15T08:16:52;114.88;;;87.03;;
38785;SDS011;24535;45.508;12.252;2023-02-15T08:19:26;124.72;;;86.05;;
38785;SDS011;24535;45.508;12.252;2023-02-15T08:21:53;115.97;;;83.57;;
38785;SDS011;24535;45.508;12.252;2023-02-15T08:24:22;121.15;;;89.10;;
38785;SDS011;24535;45.508;12.252;2023-02-15T08:26:49;124.72;;;92.28;;
38785;SDS011;24535;45.508;12.252;2023-02-15T08:29:17;119.50;;;88.18;;
38785;SDS011;24535;45.508;12.252;2023-02-15T08:31:46;121.82;;;87.78;;
38785;SDS011;24535;45.508;12.252;2023-02-15T08:34:13;124.43;;;90.60;;
38785;SDS011;24535;45.508;12.252;2023-02-15T08:36:41;115.07;;;89.43;;
38785;SDS011;24535;45.508;12.252;2023-02-15T08:39:07;116.50;;;84.18;;
38785;SDS011;24535;45.508;12.252;2023-02-15T08:41:33;113.88;;;84.50;;
38785;SDS011;24535;45.508;12.252;2023-02-15T08:44:01;109.63;;;80.88;;
38785;SDS011;24535;45.508;12.252;2023-02-15T08:46:30;101.82;;;77.75;;
38785;SDS011;24535;45.508;12.252;2023-02-15T08:48:57;101.80;;;76.63;;
38785;SDS011;24535;45.508;12.252;2023-02-15T08:51:25;105.43;;;77.35;;
38785;SDS011;24535;45.508;12.252;2023-02-15T08:53:56;78.90;;;62.55;;
38785;SDS011;24535;45.508;12.252;2023-02-15T08:56:24;85.95;;;62.65;;
38785;SDS011;24535;45.508;12.252;2023-02-15T08:58:55;74.97;;;56.95;;
38785;SDS011;24535;45.508;12.252;2023-02-15T09:01:25;74.30;;;55.35;;
38785;SDS011;24535;45.508;12.252;2023-02-15T09:03:55;72.45;;;55.63;;
38785;SDS011;24535;45.508;12.252;2023-02-15T09:06:22;73.00;;;55.53;;
38785;SDS011;24535;45.508;12.252;2023-02-15T09:08:48;70.38;;;54.53;;
38785;SDS011;24535;45.508;12.252;2023-02-15T09:11:21;66.47;;;53.90;;
38785;SDS011;24535;45.508;12.252;2023-02-15T09:13:55;68.72;;;51.80;;
38785;SDS011;24535;45.508;12.252;2023-02-15T09:16:23;66.38;;;51.90;;
38785;SDS011;24535;45.508;12.252;2023-02-15T09:18:50;66.00;;;46.63;;
38785;SDS011;24535;45.508;12.252;2023-02-15T09:21:17;44.25;;;31.25;;
38785;SDS011;24535;45.508;12.252;2023-02-15T09:23:45;59.97;;;43.50;;
38785;SDS011;24535;45.508;12.252;2023-02-15T09:26:13;53.75;;;43.85;;
38785;SDS011;24535;45.508;12.252;2023-02-15T09:28:41;52.67;;;40.85;;
38785;SDS011;24535;45.508;12.252;2023-02-15T09:31:07;58.50;;;44.65;;
38785;SDS011;24535;45.508;12.252;2023-02-15T09:33:35;56.22;;;43.67;;
38785;SDS011;24535;45.508;12.252;2023-02-15T09:36:02;51.90;;;41.25;;
38785;SDS011;24535;45.508;12.252;2023-02-15T09:38:28;47.45;;;35.03;;
38785;SDS011;24535;45.508;12.252;2023-02-15T09:41:28;52.08;;;39.47;;
38785;SDS011;24535;45.508;12.252;2023-02-15T09:46:44;47.70;;;37.40;;
38785;SDS011;24535;45.508;12.252;2023-02-15T10:05:53;48.17;;;31.75;;
38785;SDS011;24535;45.508;12.252;2023-02-15T10:25:30;29.55;;;20.77;;
38785;SDS011;24535;45.508;12.252;2023-02-15T10:28:23;34.75;;;23.00;;
38785;SDS011;24535;45.508;12.252;2023-02-15T10:30:58;35.27;;;22.60;;
38785;SDS011;24535;45.508;12.252;2023-02-15T10:33:38;36.88;;;21.50;;
38785;SDS011;24535;45.508;12.252;2023-02-15T10:58:38;30.85;;;21.15;;
38785;SDS011;24535;45.508;12.252;2023-02-15T11:01:20;31.52;;;20.27;;
38785;SDS011;24535;45.508;12.252;2023-02-15T11:06:35;36.75;;;24.58;;
38785;SDS011;24535;45.508;12.252;2023-02-15T11:09:05;29.27;;;20.92;;
38785;SDS011;24535;45.508;12.252;2023-02-15T11:11:39;29.40;;;21.42;;
38785;SDS011;24535;45.508;12.252;2023-02-15T11:14:33;38.20;;;26.45;;
38785;SDS011;24535;45.508;12.252;2023-02-15T11:17:10;38.85;;;24.63;;
38785;SDS011;24535;45.508;12.252;2023-02-15T11:22:23;38.80;;;26.08;;
38785;SDS011;24535;45.508;12.252;2023-02-15T11:24:49;34.85;;;22.73;;
38785;SDS011;24535;45.508;12.252;2023-02-15T11:27:19;40.13;;;26.02;;
38785;SDS011;24535;45.508;12.252;2023-02-15T11:32:32;36.58;;;24.33;;
38785;SDS011;24535;45.508;12.252;2023-02-15T11:35:05;37.47;;;25.25;;
38785;SDS011;24535;45.508;12.252;2023-02-15T11:40:34;33.42;;;23.48;;
38785;SDS011;24535;45.508;12.252;2023-02-15T11:43:07;34.08;;;23.70;;
38785;SDS011;24535;45.508;12.252;2023-02-15T11:45:42;36.63;;;23.95;;
38785;SDS011;24535;45.508;12.252;2023-02-15T11:48:11;40.45;;;25.73;;
38785;SDS011;24535;45.508;12.252;2023-02-15T11:50:38;41.55;;;27.77;;
38785;SDS011;24535;45.508;12.252;2023-02-15T11:53:22;49.15;;;28.95;;
38785;SDS011;24535;45.508;12.252;2023-02-15T11:55:52;44.67;;;27.40;;
38785;SDS011;24535;45.508;12.252;2023-02-15T12:00:56;36.20;;;25.05;;
38785;SDS011;24535;45.508;12.252;2023-02-15T12:03:32;37.08;;;25.00;;
38785;SDS011;24535;45.508;12.252;2023-02-15T12:06:12;36.35;;;24.25;;
38785;SDS011;24535;45.508;12.252;2023-02-15T12:08:43;38.95;;;25.63;;
38785;SDS011;24535;45.508;12.252;2023-02-15T12:11:17;37.92;;;25.65;;
38785;SDS011;24535;45.508;12.252;2023-02-15T12:14:00;38.33;;;26.33;;
38785;SDS011;24535;45.508;12.252;2023-02-15T12:16:27;45.88;;;31.02;;
38785;SDS011;24535;45.508;12.252;2023-02-15T12:18:57;44.25;;;29.55;;
38785;SDS011;24535;45.508;12.252;2023-02-15T12:21:27;40.30;;;27.70;;
38785;SDS011;24535;45.508;12.252;2023-02-15T12:23:56;41.92;;;26.73;;
38785;SDS011;24535;45.508;12.252;2023-02-15T12:26:30;41.60;;;26.25;;
38785;SDS011;24535;45.508;12.252;2023-02-15T12:28:58;40.10;;;26.42;;
38785;SDS011;24535;45.508;12.252;2023-02-15T12:31:30;41.45;;;26.65;;
38785;SDS011;24535;45.508;12.252;2023-02-15T12:34:02;39.50;;;25.20;;
38785;SDS011;24535;45.508;12.252;2023-02-15T12:37:09;35.92;;;24.02;;
38785;SDS011;24535;45.508;12.252;2023-02-15T12:42:01;34.00;;;23.08;;
38785;SDS011;24535;45.508;12.252;2023-02-15T12:44:33;37.28;;;23.67;;
38785;SDS011;24535;45.508;12.252;2023-02-15T12:47:04;37.08;;;24.10;;
38785;SDS011;24535;45.508;12.252;2023-02-15T12:49:42;40.63;;;25.17;;
38785;SDS011;24535;45.508;12.252;2023-02-15T12:54:48;31.85;;;21.80;;
38785;SDS011;24535;45.508;12.252;2023-02-15T12:59:54;36.03;;;21.92;;
38785;SDS011;24535;45.508;12.252;2023-02-15T13:02:23;32.90;;;22.60;;
38785;SDS011;24535;45.508;12.252;2023-02-15T13:04:52;43.47;;;23.05;;
38785;SDS011;24535;45.508;12.252;2023-02-15T13:07:18;33.33;;;23.00;;
38785;SDS011;24535;45.508;12.252;2023-02-15T13:09:45;33.65;;;22.30;;
38785;SDS011;24535;45.508;12.252;2023-02-15T13:12:21;41.45;;;25.50;;
38785;SDS011;24535;45.508;12.252;2023-02-15T13:14:51;39.05;;;24.77;;
38785;SDS011;24535;45.508;12.252;2023-02-15T13:17:26;42.72;;;26.02;;
38785;SDS011;24535;45.508;12.252;2023-02-15T13:19:56;41.05;;;27.67;;
38785;SDS011;24535;45.508;12.252;2023-02-15T13:25:32;43.25;;;27.40;;
38785;SDS011;24535;45.508;12.252;2023-02-15T13:28:04;49.88;;;32.50;;
38785;SDS011;24535;45.508;12.252;2023-02-15T13:30:34;46.10;;;29.30;;
38785;SDS011;24535;45.508;12.252;2023-02-15T13:33:09;44.25;;;28.50;;
38785;SDS011;24535;45.508;12.252;2023-02-15T13:35:52;50.88;;;33.88;;
38785;SDS011;24535;45.508;12.252;2023-02-15T13:38:46;49.72;;;34.50;;
38785;SDS011;24535;45.508;12.252;2023-02-15T13:44:08;45.22;;;30.73;;
38785;SDS011;24535;45.508;12.252;2023-02-15T13:49:35;54.50;;;34.60;;
38785;SDS011;24535;45.508;12.252;2023-02-15T13:52:22;54.83;;;32.63;;
38785;SDS011;24535;45.508;12.252;2023-02-15T14:16:58;52.28;;;31.80;;
38785;SDS011;24535;45.508;12.252;2023-02-15T14:19:45;56.08;;;33.65;;
38785;SDS011;24535;45.508;12.252;2023-02-15T14:22:28;54.00;;;32.75;;
38785;SDS011;24535;45.508;12.252;2023-02-15T14:25:14;51.47;;;31.55;;
38785;SDS011;24535;45.508;12.252;2023-02-15T14:30:48;47.28;;;32.15;;
38785;SDS011;24535;45.508;12.252;2023-02-15T14:35:43;56.10;;;35.10;;
38785;SDS011;24535;45.508;12.252;2023-02-15T14:46:15;50.38;;;28.80;;
38785;SDS011;24535;45.508;12.252;2023-02-15T14:48:42;49.10;;;28.27;;
38785;SDS011;24535;45.508;12.252;2023-02-15T14:56:43;38.65;;;27.10;;
38785;SDS011;24535;45.508;12.252;2023-02-15T14:59:14;50.45;;;30.90;;
38785;SDS011;24535;45.508;12.252;2023-02-15T15:01:43;53.72;;;31.88;;
38785;SDS011;24535;45.508;12.252;2023-02-15T15:04:25;58.83;;;32.97;;
38785;SDS011;24535;45.508;12.252;2023-02-15T15:06:58;48.30;;;30.35;;
38785;SDS011;24535;45.508;12.252;2023-02-15T15:09:34;53.85;;;33.47;;
38785;SDS011;24535;45.508;12.252;2023-02-15T15:12:18;51.22;;;30.00;;
38785;SDS011;24535;45.508;12.252;2023-02-15T15:15:00;53.60;;;33.37;;
38785;SDS011;24535;45.508;12.252;2023-02-15T15:19:58;54.42;;;30.92;;
38785;SDS011;24535;45.508;12.252;2023-02-15T15:22:27;48.40;;;30.05;;
38785;SDS011;24535;45.508;12.252;2023-02-15T15:30:01;61.63;;;36.25;;
38785;SDS011;24535;45.508;12.252;2023-02-15T15:32:27;57.38;;;33.80;;
38785;SDS011;24535;45.508;12.252;2023-02-15T15:42:51;59.10;;;33.90;;
38785;SDS011;24535;45.508;12.252;2023-02-15T15:45:49;60.65;;;35.40;;
38785;SDS011;24535;45.508;12.252;2023-02-15T15:48:38;54.55;;;32.90;;
38785;SDS011;24535;45.508;12.252;2023-02-15T15:51:19;55.13;;;32.13;;
38785;SDS011;24535;45.508;12.252;2023-02-15T15:53:48;55.70;;;33.70;;
38785;SDS011;24535;45.508;12.252;2023-02-15T15:56:21;51.83;;;32.97;;
38785;SDS011;24535;45.508;12.252;2023-02-15T15:58:56;58.85;;;36.70;;
38785;SDS011;24535;45.508;12.252;2023-02-15T16:01:26;53.83;;;33.10;;
38785;SDS011;24535;45.508;12.252;2023-02-15T16:03:54;64.22;;;36.25;;
38785;SDS011;24535;45.508;12.252;2023-02-15T16:06:28;56.20;;;34.10;;
38785;SDS011;24535;45.508;12.252;2023-02-15T16:09:09;59.05;;;35.97;;
38785;SDS011;24535;45.508;12.252;2023-02-15T16:11:40;61.90;;;37.60;;
38785;SDS011;24535;45.508;12.252;2023-02-15T16:14:13;61.85;;;35.90;;
38785;SDS011;24535;45.508;12.252;2023-02-15T16:17:00;58.30;;;34.78;;
38785;SDS011;24535;45.508;12.252;2023-02-15T16:19:29;64.75;;;39.03;;
38785;SDS011;24535;45.508;12.252;2023-02-15T16:21:59;60.67;;;37.15;;
38785;SDS011;24535;45.508;12.252;2023-02-15T16:27:24;53.95;;;32.50;;
38785;SDS011;24535;45.508;12.252;2023-02-15T16:30:22;55.95;;;34.55;;
38785;SDS011;24535;45.508;12.252;2023-02-15T16:32:53;57.22;;;36.63;;
38785;SDS011;24535;45.508;12.252;2023-02-15T16:36:01;71.25;;;41.47;;
38785;SDS011;24535;45.508;12.252;2023-02-15T16:41:17;72.40;;;42.33;;
38785;SDS011;24535;45.508;12.252;2023-02-15T16:43:48;68.82;;;40.60;;
38785;SDS011;24535;45.508;12.252;2023-02-15T16:48:54;59.15;;;37.80;;
38785;SDS011;24535;45.508;12.252;2023-02-15T16:51:27;77.35;;;45.90;;
38785;SDS011;24535;45.508;12.252;2023-02-15T16:53:55;72.53;;;43.65;;
38785;SDS011;24535;45.508;12.252;2023-02-15T16:56:26;78.50;;;47.22;;
38785;SDS011;24535;45.508;12.252;2023-02-15T16:58:55;71.35;;;42.15;;
38785;SDS011;24535;45.508;12.252;2023-02-15T17:01:24;60.90;;;37.90;;
38785;SDS011;24535;45.508;12.252;2023-02-15T17:07:12;66.40;;;40.92;;
38785;SDS011;24535;45.508;12.252;2023-02-15T17:09:50;104.13;;;61.35;;
38785;SDS011;24535;45.508;12.252;2023-02-15T17:13:00;67.93;;;41.42;;
38785;SDS011;24535;45.508;12.252;2023-02-15T17:20:43;56.95;;;37.92;;
38785;SDS011;24535;45.508;12.252;2023-02-15T17:26:10;83.63;;;47.58;;
38785;SDS011;24535;45.508;12.252;2023-02-15T17:28:48;76.25;;;47.83;;
38785;SDS011;24535;45.508;12.252;2023-02-15T17:31:16;85.75;;;52.63;;